Terminal Aerodrome Forecast
Issued by NWS

Home | Current Version | Previous Version | Text Only | Print | Product List | Glossary On
Versions: 1 2 3 4 5 6 7 8 9 10 11 12 13 14 15 16 17 18 19 20 21
000
FTUS43 KGRR 221400 AAB
TAFLAN
TAF AMD
KLAN 221451Z 2215/2312 20012KT 4SM -DZ BR OVC008
     FM221600 20012KT 6SM -DZ BR SCT008 OVC015
     FM221700 20012KT 6SM -DZ BR OVC015=

USA.gov is the U.S. government's official web portal to all federal, state and local government web resources and services.